Time;durP1;ratioP1;P1;durP2;ratioP2;P2;SDS_P1;SDS_P2;PMS_P1;PMS_P2;Temp;Humidity;BMP_temperature;BMP_pressure;BME280_temperature;BME280_humidity;BME280_pressure;Samples;Min_cycle;Max_cycle;Signal;HPM_P1;HPM_P2
2023/04/11 00:00:34;;;;;;;0.65;0.65;;;;;;;;;;5089913;28;20219;-84
2023/04/11 00:03:01;;;;;;;0.82;0.80;;;;;;;;;;5090542;28;20196;-85
2023/04/11 00:05:31;;;;;;;1.00;1.00;;;;;;;;;;5090492;28;20232;-83
2023/04/11 00:07:58;;;;;;;1.20;1.20;;;;;;;;;;5090957;28;20215;-83
2023/04/11 00:10:26;;;;;;;0.93;0.93;;;;;;;;;;5091207;28;20198;-84
2023/04/11 00:12:55;;;;;;;1.05;1.00;;;;;;;;;;5091112;28;20235;-84
2023/04/11 00:15:25;;;;;;;0.90;0.90;;;;;;;;;;5090903;28;20276;-83
2023/04/11 00:17:53;;;;;;;0.60;0.60;;;;;;;;;;5091862;28;20208;-84
2023/04/11 00:20:21;;;;;;;0.57;0.57;;;;;;;;;;5090848;28;20276;-84
2023/04/11 00:22:52;;;;;;;0.90;0.90;;;;;;;;;;5091081;28;20237;-84
2023/04/11 00:25:20;;;;;;;0.73;0.73;;;;;;;;;;5092343;28;20189;-84
2023/04/11 00:27:48;;;;;;;0.60;0.60;;;;;;;;;;5075608;28;20221;-85
2023/04/11 00:30:15;;;;;;;0.90;0.90;;;;;;;;;;5071228;28;20202;-85
2023/04/11 00:32:44;;;;;;;0.70;0.70;;;;;;;;;;5072327;28;20202;-86
2023/04/11 00:35:12;;;;;;;0.77;0.77;;;;;;;;;;5072400;28;20218;-85
2023/04/11 00:37:43;;;;;;;0.93;0.90;;;;;;;;;;5071394;28;20225;-85
2023/04/11 00:40:16;;;;;;;0.80;0.80;;;;;;;;;;5072621;28;20192;-85
2023/04/11 00:42:44;;;;;;;0.60;0.60;;;;;;;;;;5072268;28;20206;-85
2023/04/11 00:45:12;;;;;;;0.88;0.88;;;;;;;;;;5082299;28;20205;-86
2023/04/11 00:47:40;;;;;;;0.50;0.50;;;;;;;;;;5092020;28;20255;-85
2023/04/11 00:50:12;;;;;;;0.68;0.68;;;;;;;;;;5091323;28;20233;-85
2023/04/11 00:52:40;;;;;;;0.95;0.85;;;;;;;;;;5091675;28;20213;-85
2023/04/11 00:55:09;;;;;;;0.50;0.50;;;;;;;;;;5091121;28;20221;-85
2023/04/11 00:57:38;;;;;;;0.70;0.70;;;;;;;;;;5091592;28;20221;-86
2023/04/11 01:00:09;;;;;;;0.65;0.65;;;;;;;;;;5091629;28;20197;-85
2023/04/11 01:02:37;;;;;;;0.60;0.60;;;;;;;;;;5091759;28;20218;-84
2023/04/11 01:05:06;;;;;;;0.60;0.60;;;;;;;;;;5091489;28;20193;-84
2023/04/11 01:07:35;;;;;;;0.63;0.63;;;;;;;;;;5091853;28;20287;-84
2023/04/11 01:10:04;;;;;;;0.60;0.60;;;;;;;;;;5090918;28;20227;-84
2023/04/11 01:12:33;;;;;;;0.60;0.60;;;;;;;;;;5091896;28;20466;-87
2023/04/11 01:15:01;;;;;;;0.57;0.57;;;;;;;;;;5091040;28;20223;-84
2023/04/11 01:17:31;;;;;;;0.68;0.63;;;;;;;;;;5090596;28;20236;-85
2023/04/11 01:19:58;;;;;;;1.05;1.05;;;;;;;;;;5091075;28;20239;-84
2023/04/11 01:22:26;;;;;;;1.23;0.65;;;;;;;;;;5090425;28;20254;-85
2023/04/11 01:24:56;;;;;;;0.60;0.60;;;;;;;;;;5090244;28;20227;-86
2023/04/11 01:27:23;;;;;;;0.60;0.60;;;;;;;;;;5090645;28;20223;-85
2023/04/11 01:29:51;;;;;;;0.57;0.57;;;;;;;;;;5090577;28;20193;-85
2023/04/11 01:32:18;;;;;;;0.82;0.82;;;;;;;;;;5092150;28;20201;-85
2023/04/11 01:34:48;;;;;;;0.65;0.60;;;;;;;;;;5095508;28;20252;-86
2023/04/11 01:37:15;;;;;;;0.77;0.77;;;;;;;;;;5096043;28;20189;-84
2023/04/11 01:39:43;;;;;;;2.33;1.00;;;;;;;;;;5096214;28;20181;-84
2023/04/11 01:42:12;;;;;;;0.65;0.65;;;;;;;;;;5095610;28;20204;-87
2023/04/11 01:44:40;;;;;;;0.40;0.40;;;;;;;;;;5095222;28;20227;-87
2023/04/11 01:47:07;;;;;;;0.65;0.65;;;;;;;;;;5095101;28;20193;-84
2023/04/11 01:49:35;;;;;;;0.40;0.40;;;;;;;;;;5095351;28;20197;-85
2023/04/11 01:52:03;;;;;;;0.70;0.70;;;;;;;;;;5095557;28;20261;-84
2023/04/11 01:54:30;;;;;;;0.60;0.60;;;;;;;;;;5095552;28;20208;-87
2023/04/11 01:56:58;;;;;;;0.90;0.80;;;;;;;;;;5095346;28;20200;-84
2023/04/11 01:59:27;;;;;;;0.40;0.40;;;;;;;;;;5095258;28;20205;-84
2023/04/11 02:01:54;;;;;;;0.60;0.60;;;;;;;;;;5094991;28;20193;-84
2023/04/11 02:04:22;;;;;;;0.63;0.63;;;;;;;;;;5094766;28;20227;-86
2023/04/11 02:06:49;;;;;;;0.60;0.52;;;;;;;;;;5095385;28;20216;-84
2023/04/11 02:09:17;;;;;;;0.55;0.55;;;;;;;;;;5094229;28;20229;-84
2023/04/11 02:11:44;;;;;;;0.70;0.70;;;;;;;;;;5094855;28;20227;-85
2023/04/11 02:14:14;;;;;;;0.60;0.60;;;;;;;;;;5093789;28;20208;-85
2023/04/11 02:16:53;;;;;;;0.60;0.60;;;;;;;;;;5094701;28;20217;-85
2023/04/11 02:19:22;;;;;;;0.60;0.60;;;;;;;;;;5093434;28;20277;-88
2023/04/11 02:21:50;;;;;;;0.43;0.43;;;;;;;;;;5095526;28;20227;-86
2023/04/11 02:24:17;;;;;;;0.77;0.77;;;;;;;;;;5094784;28;20279;-85
2023/04/11 02:26:45;;;;;;;0.68;0.68;;;;;;;;;;5094875;28;20197;-85
2023/04/11 02:29:12;;;;;;;0.60;0.60;;;;;;;;;;5095063;28;20224;-86
2023/04/11 02:31:39;;;;;;;0.50;0.50;;;;;;;;;;5094278;28;20224;-84
2023/04/11 02:34:08;;;;;;;0.77;0.50;;;;;;;;;;5095102;28;20197;-84
2023/04/11 02:36:36;;;;;;;0.50;0.50;;;;;;;;;;5093750;28;20224;-83
2023/04/11 02:39:03;;;;;;;0.85;0.65;;;;;;;;;;5094510;28;20256;-84
2023/04/11 02:41:31;;;;;;;0.80;0.60;;;;;;;;;;5093795;28;20197;-85
2023/04/11 02:43:58;;;;;;;0.35;0.35;;;;;;;;;;5092113;28;20221;-85
2023/04/11 02:46:26;;;;;;;0.50;0.50;;;;;;;;;;5093391;28;20187;-86
2023/04/11 02:48:53;;;;;;;1.10;0.90;;;;;;;;;;5092776;28;20213;-85
2023/04/11 02:51:22;;;;;;;1.38;0.93;;;;;;;;;;5090127;28;20197;-84
2023/04/11 02:53:51;;;;;;;0.75;0.52;;;;;;;;;;5091983;28;20200;-86
2023/04/11 02:56:19;;;;;;;0.45;0.45;;;;;;;;;;5092499;28;20254;-83
2023/04/11 02:58:47;;;;;;;1.35;0.80;;;;;;;;;;5091019;28;20252;-84
2023/04/11 03:01:15;;;;;;;0.63;0.50;;;;;;;;;;5093363;28;20210;-84
2023/04/11 03:03:43;;;;;;;0.60;0.60;;;;;;;;;;5093823;28;20197;-85
2023/04/11 03:06:11;;;;;;;0.43;0.43;;;;;;;;;;5093119;28;20217;-85
2023/04/11 03:08:40;;;;;;;0.52;0.52;;;;;;;;;;5091748;28;20213;-85
2023/04/11 03:11:07;;;;;;;0.60;0.60;;;;;;;;;;5092212;28;20205;-85
2023/04/11 03:13:36;;;;;;;0.73;0.70;;;;;;;;;;5090914;28;20224;-86
2023/04/11 03:16:03;;;;;;;0.60;0.60;;;;;;;;;;5091413;28;20220;-86
2023/04/11 03:18:31;;;;;;;0.50;0.50;;;;;;;;;;5092959;28;20237;-85
2023/04/11 03:20:58;;;;;;;0.70;0.70;;;;;;;;;;5092389;28;20200;-87
2023/04/11 03:23:26;;;;;;;0.73;0.73;;;;;;;;;;5091212;28;20197;-86
2023/04/11 03:25:55;;;;;;;1.33;1.23;;;;;;;;;;5091664;28;20197;-86
2023/04/11 03:28:23;;;;;;;0.75;0.70;;;;;;;;;;5090918;28;20307;-86
2023/04/11 03:30:50;;;;;;;0.70;0.70;;;;;;;;;;5089483;28;20205;-86
2023/04/11 03:33:18;;;;;;;1.00;1.00;;;;;;;;;;5089640;28;20209;-85
2023/04/11 03:35:45;;;;;;;0.60;0.60;;;;;;;;;;5092292;28;20282;-85
2023/04/11 03:38:13;;;;;;;0.90;0.82;;;;;;;;;;5092232;28;20225;-85
2023/04/11 03:40:40;;;;;;;0.77;0.77;;;;;;;;;;5090743;28;20235;-87
2023/04/11 03:43:09;;;;;;;2.95;0.98;;;;;;;;;;5089533;28;20263;-86
2023/04/11 03:45:37;;;;;;;0.60;0.60;;;;;;;;;;5091414;28;20212;-87
2023/04/11 03:48:05;;;;;;;0.75;0.75;;;;;;;;;;5092669;28;20231;-86
2023/04/11 03:50:32;;;;;;;0.70;0.70;;;;;;;;;;5090833;28;20224;-87
2023/04/11 03:53:00;;;;;;;0.63;0.63;;;;;;;;;;5091249;28;20224;-86
2023/04/11 03:55:27;;;;;;;0.77;0.70;;;;;;;;;;5092069;28;20453;-86
2023/04/11 03:57:55;;;;;;;1.77;0.90;;;;;;;;;;5091560;28;20225;-87
2023/04/11 04:00:24;;;;;;;0.60;0.60;;;;;;;;;;5091958;28;20200;-86
2023/04/11 04:02:51;;;;;;;0.65;0.65;;;;;;;;;;5090643;28;20205;-85
2023/04/11 04:05:19;;;;;;;1.20;0.90;;;;;;;;;;5091831;28;20209;-87
2023/04/11 04:07:46;;;;;;;0.65;0.63;;;;;;;;;;5091143;28;20223;-87
2023/04/11 04:10:14;;;;;;;0.65;0.65;;;;;;;;;;5090407;28;20734;-85
2023/04/11 04:12:41;;;;;;;1.33;0.70;;;;;;;;;;5089151;28;20207;-87
2023/04/11 04:15:13;;;;;;;2.92;1.45;;;;;;;;;;5086462;28;20212;-88
2023/04/11 04:17:42;;;;;;;1.08;0.75;;;;;;;;;;5088210;28;20284;-87
2023/04/11 04:20:11;;;;;;;0.82;0.82;;;;;;;;;;5087590;28;20205;-87
2023/04/11 04:22:38;;;;;;;1.13;0.80;;;;;;;;;;5087317;28;20266;-87
2023/04/11 04:25:08;;;;;;;1.40;0.85;;;;;;;;;;5085299;28;20193;-87
2023/04/11 04:27:35;;;;;;;2.05;1.38;;;;;;;;;;5087666;28;20746;-88
2023/04/11 04:30:04;;;;;;;3.33;1.10;;;;;;;;;;5087575;28;20227;-86
2023/04/11 04:32:32;;;;;;;1.52;1.42;;;;;;;;;;5087801;28;20204;-86
2023/04/11 04:35:01;;;;;;;2.15;1.40;;;;;;;;;;5086296;28;20216;-86
2023/04/11 04:37:28;;;;;;;1.83;1.15;;;;;;;;;;5087374;28;20228;-87
2023/04/11 04:40:01;;;;;;;1.55;1.02;;;;;;;;;;5087048;22;20886;-81
2023/04/11 04:42:30;;;;;;;2.75;0.88;;;;;;;;;;5074010;28;20216;-80
2023/04/11 04:44:57;;;;;;;3.67;1.00;;;;;;;;;;5075075;28;20229;-80
2023/04/11 04:47:29;;;;;;;1.67;0.93;;;;;;;;;;5074280;28;20197;-80
2023/04/11 04:49:57;;;;;;;2.60;1.10;;;;;;;;;;5074313;28;20631;-80
2023/04/11 04:52:27;;;;;;;0.73;0.73;;;;;;;;;;5074314;28;20223;-80
2023/04/11 04:54:56;;;;;;;4.43;1.95;;;;;;;;;;5079820;22;20236;-85
2023/04/11 04:57:24;;;;;;;0.80;0.80;;;;;;;;;;5077003;28;20704;-85
2023/04/11 04:59:53;;;;;;;2.03;1.20;;;;;;;;;;5075176;28;20259;-85
2023/04/11 05:02:21;;;;;;;1.05;1.00;;;;;;;;;;5075986;28;20258;-85
2023/04/11 05:04:56;;;;;;;1.98;1.30;;;;;;;;;;5075478;28;20696;-85
2023/04/11 05:07:27;;;;;;;1.75;1.42;;;;;;;;;;5075298;28;20212;-85
2023/04/11 05:10:06;;;;;;;1.80;1.10;;;;;;;;;;5075145;28;20279;-85
2023/04/11 05:12:33;;;;;;;4.28;1.52;;;;;;;;;;5074887;28;20184;-85
2023/04/11 05:15:03;;;;;;;1.83;1.20;;;;;;;;;;5075274;28;20303;-84
2023/04/11 05:17:33;;;;;;;1.63;1.00;;;;;;;;;;5075653;28;20221;-84
2023/04/11 05:20:01;;;;;;;2.67;1.00;;;;;;;;;;5075005;28;20271;-85
2023/04/11 05:22:39;;;;;;;2.78;1.20;;;;;;;;;;5074535;28;20205;-85
2023/04/11 05:25:17;;;;;;;1.40;1.17;;;;;;;;;;5074893;28;20288;-85
2023/04/11 05:27:45;;;;;;;1.80;1.17;;;;;;;;;;5075308;28;20637;-85
2023/04/11 05:30:15;;;;;;;4.38;1.20;;;;;;;;;;5073978;28;20701;-86
2023/04/11 05:32:45;;;;;;;1.25;1.00;;;;;;;;;;5074326;28;20192;-86
2023/04/11 05:35:20;;;;;;;1.17;0.95;;;;;;;;;;5078224;28;20232;-85
2023/04/11 05:37:49;;;;;;;1.52;1.10;;;;;;;;;;5074033;28;20201;-85
2023/04/11 05:40:17;;;;;;;1.30;1.00;;;;;;;;;;5075354;28;20290;-85
2023/04/11 05:42:49;;;;;;;0.93;0.90;;;;;;;;;;5074703;28;20234;-86
2023/04/11 05:45:18;;;;;;;2.60;1.65;;;;;;;;;;5074777;28;20220;-85
2023/04/11 05:47:46;;;;;;;1.77;1.40;;;;;;;;;;5075182;28;20727;-86
2023/04/11 05:50:18;;;;;;;2.05;1.52;;;;;;;;;;5074728;28;20295;-86
2023/04/11 05:52:47;;;;;;;2.22;1.77;;;;;;;;;;5076946;28;20208;-86
2023/04/11 05:55:19;;;;;;;1.65;1.48;;;;;;;;;;5075183;28;20272;-85
2023/04/11 05:57:51;;;;;;;2.40;1.15;;;;;;;;;;5074892;28;20256;-86
2023/04/11 06:00:20;;;;;;;1.30;1.20;;;;;;;;;;5074500;28;20263;-86
2023/04/11 06:02:49;;;;;;;1.30;1.15;;;;;;;;;;5074502;28;20201;-86
2023/04/11 06:05:20;;;;;;;3.33;1.63;;;;;;;;;;5074683;28;20714;-85
2023/04/11 06:07:48;;;;;;;5.68;1.42;;;;;;;;;;5075549;28;20579;-84
2023/04/11 06:10:18;;;;;;;3.00;1.35;;;;;;;;;;5073976;28;20248;-85
2023/04/11 06:12:48;;;;;;;1.48;1.33;;;;;;;;;;5074592;28;20201;-85
2023/04/11 06:15:16;;;;;;;2.60;1.17;;;;;;;;;;5074590;28;20217;-85
2023/04/11 06:17:43;;;;;;;1.45;1.35;;;;;;;;;;5075060;28;20212;-85
2023/04/11 06:20:13;;;;;;;3.45;1.10;;;;;;;;;;5077767;28;20228;-85
2023/04/11 06:22:40;;;;;;;2.13;1.10;;;;;;;;;;5078204;28;20233;-85
2023/04/11 06:25:13;;;;;;;1.60;1.42;;;;;;;;;;5078465;28;20719;-85
2023/04/11 06:27:42;;;;;;;1.73;1.30;;;;;;;;;;5078424;28;20194;-85
2023/04/11 06:30:13;;;;;;;3.42;1.15;;;;;;;;;;5078540;28;20225;-85
2023/04/11 06:32:41;;;;;;;5.20;1.60;;;;;;;;;;5078000;28;20552;-86
2023/04/11 06:35:09;;;;;;;2.10;1.45;;;;;;;;;;5062655;28;20646;-85
2023/04/11 06:37:37;;;;;;;2.67;1.60;;;;;;;;;;5058712;28;20257;-86
2023/04/11 06:40:05;;;;;;;3.97;1.90;;;;;;;;;;5056614;28;20308;-85
2023/04/11 06:42:37;;;;;;;5.40;3.13;;;;;;;;;;5066463;28;20184;-85
2023/04/11 06:45:06;;;;;;;2.58;1.25;;;;;;;;;;5097507;28;20261;-86
2023/04/11 06:47:34;;;;;;;2.20;1.20;;;;;;;;;;5097487;28;20203;-85
2023/04/11 06:50:02;;;;;;;3.42;2.08;;;;;;;;;;5098317;28;20275;-85
2023/04/11 06:52:30;;;;;;;2.85;1.23;;;;;;;;;;5097908;28;20668;-85
2023/04/11 06:54:57;;;;;;;4.07;1.90;;;;;;;;;;5097767;28;20664;-85
2023/04/11 06:57:30;;;;;;;7.90;2.45;;;;;;;;;;5098411;28;20644;-85
2023/04/11 07:00:05;;;;;;;5.07;2.67;;;;;;;;;;5092165;28;20217;-86
2023/04/11 07:02:38;;;;;;;2.78;1.80;;;;;;;;;;5078230;28;20613;-85
2023/04/11 07:05:09;;;;;;;2.70;2.45;;;;;;;;;;5077871;28;20199;-85
2023/04/11 07:07:37;;;;;;;5.82;2.15;;;;;;;;;;5078010;28;20211;-85
2023/04/11 07:10:11;;;;;;;1.48;1.33;;;;;;;;;;5077683;28;20216;-85
2023/04/11 07:12:41;;;;;;;3.47;1.83;;;;;;;;;;5077698;28;20180;-86
2023/04/11 07:15:13;;;;;;;2.03;1.40;;;;;;;;;;5078525;28;20569;-86
2023/04/11 07:17:43;;;;;;;2.33;1.63;;;;;;;;;;5078108;28;20184;-86
2023/04/11 07:20:17;;;;;;;3.35;1.90;;;;;;;;;;5077838;28;20228;-85
2023/04/11 07:22:45;;;;;;;5.03;1.73;;;;;;;;;;5077797;28;20620;-85
2023/04/11 07:25:14;;;;;;;5.10;2.53;;;;;;;;;;5076661;28;20228;-86
2023/04/11 07:27:45;;;;;;;1.55;1.45;;;;;;;;;;5077005;28;20201;-83
2023/04/11 07:30:19;;;;;;;1.30;1.10;;;;;;;;;;5077793;28;20225;-83
2023/04/11 07:32:48;;;;;;;2.35;1.30;;;;;;;;;;5077805;28;20196;-83
2023/04/11 07:35:17;;;;;;;1.63;1.30;;;;;;;;;;5076922;28;20201;-83
2023/04/11 07:37:56;;;;;;;2.67;1.48;;;;;;;;;;5078412;28;20228;-83
2023/04/11 07:40:26;;;;;;;3.97;1.98;;;;;;;;;;5078177;28;20209;-83
2023/04/11 07:42:54;;;;;;;3.45;1.45;;;;;;;;;;5077917;28;20654;-83
2023/04/11 07:45:23;;;;;;;3.88;1.60;;;;;;;;;;5078165;28;20584;-85
2023/04/11 07:47:51;;;;;;;3.13;1.55;;;;;;;;;;5076963;28;20284;-85
2023/04/11 07:50:21;;;;;;;2.33;1.40;;;;;;;;;;5076488;28;20308;-85
2023/04/11 07:52:50;;;;;;;2.05;1.65;;;;;;;;;;5076103;28;20205;-85
2023/04/11 07:55:21;;;;;;;1.98;1.60;;;;;;;;;;5075997;28;20208;-85
2023/04/11 07:57:52;;;;;;;4.25;1.75;;;;;;;;;;5075966;28;20189;-85
2023/04/11 08:00:22;;;;;;;1.90;1.58;;;;;;;;;;5076002;28;20312;-84
2023/04/11 08:02:51;;;;;;;3.63;1.58;;;;;;;;;;5076266;28;20228;-86
2023/04/11 08:05:20;;;;;;;2.80;1.60;;;;;;;;;;5076201;28;20204;-85
2023/04/11 08:07:47;;;;;;;2.42;1.75;;;;;;;;;;5075476;28;20232;-85
2023/04/11 08:10:15;;;;;;;2.95;1.60;;;;;;;;;;5075580;28;20305;-85
2023/04/11 08:12:48;;;;;;;2.28;1.55;;;;;;;;;;5075707;28;20234;-84
2023/04/11 08:15:16;;;;;;;2.95;2.00;;;;;;;;;;5076477;28;20224;-85
2023/04/11 08:17:55;;;;;;;2.03;1.42;;;;;;;;;;5073843;28;20627;-85
2023/04/11 08:20:25;;;;;;;5.45;1.63;;;;;;;;;;5074960;28;20320;-83
2023/04/11 08:22:55;;;;;;;3.80;2.47;;;;;;;;;;5075728;28;20181;-82
2023/04/11 08:25:22;;;;;;;3.55;2.10;;;;;;;;;;5076135;28;20579;-83
2023/04/11 08:27:50;;;;;;;1.75;1.25;;;;;;;;;;5076067;28;20216;-83
2023/04/11 08:30:18;;;;;;;2.65;1.88;;;;;;;;;;5077066;28;20725;-83
2023/04/11 08:32:47;;;;;;;2.22;1.80;;;;;;;;;;5075590;28;20705;-85
2023/04/11 08:35:17;;;;;;;3.72;2.40;;;;;;;;;;5075267;28;20254;-85
2023/04/11 08:37:44;;;;;;;1.90;1.70;;;;;;;;;;5073410;28;20231;-84
2023/04/11 08:40:19;;;;;;;1.88;1.45;;;;;;;;;;5072116;28;20286;-85
2023/04/11 08:42:52;;;;;;;2.15;1.95;;;;;;;;;;5073190;28;20287;-83
2023/04/11 08:45:29;;;;;;;4.25;1.60;;;;;;;;;;5076091;28;20216;-83
2023/04/11 08:47:58;;;;;;;4.20;1.52;;;;;;;;;;5074389;28;20204;-83
2023/04/11 08:50:28;;;;;;;2.35;1.30;;;;;;;;;;5074597;28;20720;-83
2023/04/11 08:53:03;;;;;;;2.15;1.15;;;;;;;;;;5074998;28;20254;-83
2023/04/11 08:55:33;;;;;;;1.60;1.40;;;;;;;;;;5035643;28;1107641;-83
2023/04/11 08:58:07;;;;;;;2.85;1.50;;;;;;;;;;5076281;28;20231;-85
2023/04/11 09:00:45;;;;;;;1.90;1.42;;;;;;;;;;5075427;28;20212;-83
2023/04/11 09:03:17;;;;;;;1.45;1.27;;;;;;;;;;5074773;28;20205;-84
2023/04/11 09:05:48;;;;;;;2.25;1.67;;;;;;;;;;5076274;28;20601;-85
2023/04/11 09:08:19;;;;;;;1.85;1.50;;;;;;;;;;5075654;28;20256;-84
2023/04/11 09:10:50;;;;;;;2.15;1.58;;;;;;;;;;5075812;28;20181;-84
2023/04/11 09:13:26;;;;;;;2.65;1.63;;;;;;;;;;5075117;28;20292;-85
2023/04/11 09:16:05;;;;;;;4.85;1.63;;;;;;;;;;5075100;28;20203;-84
2023/04/11 09:18:41;;;;;;;3.45;2.72;;;;;;;;;;5074981;28;20213;-84
2023/04/11 09:21:18;;;;;;;5.70;1.85;;;;;;;;;;5075654;28;20205;-84
2023/04/11 09:23:46;;;;;;;2.75;1.40;;;;;;;;;;5075884;28;20250;-85
2023/04/11 09:26:24;;;;;;;1.92;1.80;;;;;;;;;;5075931;28;20201;-85
2023/04/11 09:28:52;;;;;;;3.35;3.05;;;;;;;;;;5075612;28;20217;-85
2023/04/11 09:31:20;;;;;;;4.93;3.80;;;;;;;;;;5075082;28;20201;-85
2023/04/11 09:34:04;;;;;;;3.78;2.33;;;;;;;;;;5074900;28;20243;-85
2023/04/11 09:36:42;;;;;;;8.68;2.55;;;;;;;;;;5075191;28;20231;-85
2023/04/11 09:39:27;;;;;;;2.42;2.17;;;;;;;;;;5073586;28;20228;-85
2023/04/11 09:41:57;;;;;;;2.03;1.92;;;;;;;;;;5074532;28;20185;-85
2023/04/11 09:44:38;;;;;;;1.88;1.60;;;;;;;;;;5075005;28;20245;-85
2023/04/11 09:47:09;;;;;;;1.83;1.63;;;;;;;;;;5074946;28;20213;-84
2023/04/11 09:49:41;;;;;;;3.75;2.03;;;;;;;;;;5075578;28;20225;-85
2023/04/11 09:52:14;;;;;;;2.40;1.80;;;;;;;;;;5075172;28;20189;-84
2023/04/11 09:54:46;;;;;;;2.22;2.03;;;;;;;;;;5078115;28;20213;-84
2023/04/11 10:00:15;;;;;;;1.58;1.48;;;;;;;;;;5075832;28;20217;-86
2023/04/11 10:02:54;;;;;;;2.63;1.80;;;;;;;;;;5078442;28;20196;-84
2023/04/11 10:05:27;;;;;;;4.38;1.90;;;;;;;;;;5078260;28;20226;-85
2023/04/11 10:08:07;;;;;;;4.75;2.17;;;;;;;;;;5079264;28;20185;-84
2023/04/11 10:10:38;;;;;;;2.15;1.95;;;;;;;;;;5079216;28;20189;-85
2023/04/11 10:13:49;;;;;;;4.90;2.22;;;;;;;;;;5078572;28;20607;-85
2023/04/11 10:16:31;;;;;;;5.60;2.78;;;;;;;;;;5059851;28;20186;-86
2023/04/11 10:19:26;;;;;;;2.97;2.35;;;;;;;;;;5061212;28;20251;-86
2023/04/11 10:21:59;;;;;;;2.17;1.42;;;;;;;;;;5060840;28;20622;-85
2023/04/11 10:24:32;;;;;;;3.42;1.67;;;;;;;;;;5061520;28;20273;-85
2023/04/11 10:27:05;;;;;;;1.60;1.33;;;;;;;;;;5060743;28;20601;-86
2023/04/11 10:29:52;;;;;;;2.85;1.42;;;;;;;;;;5060358;28;20277;-85
2023/04/11 10:32:24;;;;;;;2.53;1.50;;;;;;;;;;5061343;28;20253;-86
2023/04/11 10:35:28;;;;;;;4.70;2.45;;;;;;;;;;5060891;28;20198;-85
2023/04/11 10:37:57;;;;;;;2.78;2.50;;;;;;;;;;5021912;28;20725;-86
2023/04/11 10:40:25;;;;;;;1.70;1.60;;;;;;;;;;5078825;28;20286;-85
2023/04/11 10:42:53;;;;;;;3.42;1.50;;;;;;;;;;5080732;28;20784;-86
2023/04/11 10:45:24;;;;;;;3.75;1.45;;;;;;;;;;5090134;22;20225;-83
2023/04/11 10:48:10;;;;;;;5.57;2.25;;;;;;;;;;5067365;28;20205;-83
2023/04/11 10:50:47;;;;;;;3.83;1.90;;;;;;;;;;5066816;28;20595;-82
2023/04/11 10:53:37;;;;;;;4.07;1.50;;;;;;;;;;5099094;22;20220;-80
2023/04/11 10:56:06;;;;;;;2.30;1.70;;;;;;;;;;5056987;28;20205;-80
2023/04/11 10:58:39;;;;;;;1.73;1.63;;;;;;;;;;5057682;28;20202;-82
2023/04/11 11:01:18;;;;;;;2.63;1.52;;;;;;;;;;5057058;28;20217;-81
2023/04/11 11:03:59;;;;;;;3.85;1.88;;;;;;;;;;5057911;28;20229;-80
2023/04/11 11:06:27;;;;;;;2.60;1.90;;;;;;;;;;5057458;28;20225;-81
2023/04/11 11:08:58;;;;;;;1.35;1.20;;;;;;;;;;5057563;28;20285;-81
2023/04/11 11:11:25;;;;;;;2.00;1.10;;;;;;;;;;5057918;28;20233;-82
2023/04/11 11:13:55;;;;;;;2.70;2.00;;;;;;;;;;5058572;28;20248;-83
2023/04/11 11:16:25;;;;;;;2.53;1.42;;;;;;;;;;5060415;28;20406;-83
2023/04/11 11:18:53;;;;;;;3.28;1.48;;;;;;;;;;5057952;28;20228;-81
2023/04/11 11:21:26;;;;;;;4.03;1.55;;;;;;;;;;5058588;28;20227;-82
2023/04/11 11:23:56;;;;;;;1.85;1.20;;;;;;;;;;5058199;28;20233;-82
2023/04/11 11:26:36;;;;;;;4.53;1.95;;;;;;;;;;5057743;28;20193;-81
2023/04/11 11:29:04;;;;;;;1.75;1.30;;;;;;;;;;5058646;28;20643;-83
2023/04/11 11:31:40;;;;;;;1.40;1.00;;;;;;;;;;5068302;28;20236;-81
2023/04/11 11:34:08;;;;;;;2.45;1.65;;;;;;;;;;5080051;28;20205;-82
2023/04/11 11:36:38;;;;;;;2.80;1.42;;;;;;;;;;5079498;28;20189;-78
2023/04/11 11:39:09;;;;;;;3.35;1.33;;;;;;;;;;5079851;28;20208;-79
2023/04/11 11:41:37;;;;;;;3.40;1.60;;;;;;;;;;5079748;28;20201;-79
2023/04/11 11:44:05;;;;;;;2.22;1.42;;;;;;;;;;5079274;28;20216;-79
2023/04/11 11:46:34;;;;;;;1.48;1.10;;;;;;;;;;5061354;28;20296;-82
2023/04/11 11:49:04;;;;;;;1.73;1.33;;;;;;;;;;5057175;28;20217;-80
2023/04/11 11:51:41;;;;;;;2.10;1.27;;;;;;;;;;5057756;28;20580;-82
2023/04/11 11:54:12;;;;;;;2.22;1.25;;;;;;;;;;5057274;28;20233;-81
2023/04/11 11:56:40;;;;;;;3.13;1.20;;;;;;;;;;5056951;28;20208;-79
2023/04/11 11:59:09;;;;;;;2.90;1.73;;;;;;;;;;5056118;28;20205;-81
2023/04/11 12:01:37;;;;;;;1.70;1.30;;;;;;;;;;5055892;28;20225;-81
2023/04/11 12:04:09;;;;;;;2.05;1.25;;;;;;;;;;5056211;28;20264;-80
2023/04/11 12:06:37;;;;;;;2.42;1.67;;;;;;;;;;5056764;28;20202;-81
2023/04/11 12:09:08;;;;;;;1.85;1.38;;;;;;;;;;5056098;28;20236;-81
2023/04/11 12:11:39;;;;;;;3.45;1.35;;;;;;;;;;5057288;28;20245;-82
2023/04/11 12:14:07;;;;;;;4.85;1.20;;;;;;;;;;5057263;28;20659;-81
2023/04/11 12:16:36;;;;;;;2.38;1.20;;;;;;;;;;5056080;28;20212;-81
2023/04/11 12:19:05;;;;;;;2.28;1.30;;;;;;;;;;5055700;28;20338;-81
2023/04/11 12:21:32;;;;;;;2.60;1.30;;;;;;;;;;5056170;28;20312;-81
2023/04/11 12:24:00;;;;;;;3.50;1.98;;;;;;;;;;5056627;28;20304;-81
2023/04/11 12:26:29;;;;;;;2.83;1.27;;;;;;;;;;5056959;28;20212;-80
2023/04/11 12:28:57;;;;;;;2.53;1.10;;;;;;;;;;5056126;28;20297;-81
2023/04/11 12:31:25;;;;;;;1.85;1.35;;;;;;;;;;5059270;28;20205;-81
2023/04/11 12:33:53;;;;;;;2.95;1.20;;;;;;;;;;5056133;28;20225;-81
2023/04/11 12:36:21;;;;;;;1.60;1.10;;;;;;;;;;5056497;28;20713;-81
2023/04/11 12:38:49;;;;;;;3.55;1.48;;;;;;;;;;5055348;28;20202;-81
2023/04/11 12:41:16;;;;;;;1.80;1.20;;;;;;;;;;5056111;28;20228;-81
2023/04/11 12:43:45;;;;;;;4.32;1.40;;;;;;;;;;5055626;28;20665;-81
2023/04/11 12:46:13;;;;;;;1.30;1.20;;;;;;;;;;5045147;28;20730;-81
2023/04/11 12:48:40;;;;;;;2.95;1.10;;;;;;;;;;5042392;28;20670;-81
2023/04/11 12:51:08;;;;;;;2.42;1.23;;;;;;;;;;5039011;28;20298;-81
2023/04/11 12:53:35;;;;;;;2.08;1.65;;;;;;;;;;5037250;28;20289;-81
2023/04/11 12:56:03;;;;;;;1.30;1.20;;;;;;;;;;5035204;28;20293;-82
2023/04/11 12:58:31;;;;;;;2.47;1.65;;;;;;;;;;5041586;28;20285;-80
2023/04/11 13:01:00;;;;;;;1.30;1.20;;;;;;;;;;5042873;28;20276;-80
2023/04/11 13:03:28;;;;;;;2.97;2.53;;;;;;;;;;5039245;28;20285;-80
2023/04/11 13:05:56;;;;;;;1.30;1.20;;;;;;;;;;5035851;28;20248;-81
2023/04/11 13:08:23;;;;;;;2.55;1.10;;;;;;;;;;5035768;28;20677;-79
2023/04/11 13:10:50;;;;;;;4.97;1.23;;;;;;;;;;5040564;28;20613;-79
2023/04/11 13:13:18;;;;;;;1.80;1.70;;;;;;;;;;5048071;28;20270;-80
2023/04/11 13:15:46;;;;;;;1.90;1.10;;;;;;;;;;5037634;28;20206;-79
2023/04/11 13:18:15;;;;;;;1.90;0.80;;;;;;;;;;5055070;28;20208;-79
2023/04/11 13:20:42;;;;;;;4.88;1.00;;;;;;;;;;5056376;28;20197;-80
2023/04/11 13:23:09;;;;;;;1.20;1.00;;;;;;;;;;5055322;28;20226;-80
2023/04/11 13:25:39;;;;;;;0.70;0.70;;;;;;;;;;5054714;28;20233;-80
2023/04/11 13:28:08;;;;;;;1.27;0.90;;;;;;;;;;5055593;28;20300;-81
2023/04/11 13:30:36;;;;;;;3.95;0.60;;;;;;;;;;5060313;28;20228;-81
2023/04/11 13:33:03;;;;;;;1.58;0.90;;;;;;;;;;5059652;28;20193;-81
2023/04/11 13:35:32;;;;;;;0.90;0.90;;;;;;;;;;5060954;28;20312;-79
2023/04/11 13:38:01;;;;;;;0.88;0.88;;;;;;;;;;5059345;28;20270;-80
2023/04/11 13:40:28;;;;;;;2.15;1.10;;;;;;;;;;5059575;28;20205;-81
2023/04/11 13:42:56;;;;;;;1.65;1.08;;;;;;;;;;5058155;28;20333;-80
2023/04/11 13:45:23;;;;;;;1.98;1.13;;;;;;;;;;5058869;28;20664;-80
2023/04/11 13:47:51;;;;;;;2.25;0.90;;;;;;;;;;5059720;28;20805;-81
2023/04/11 13:50:18;;;;;;;2.10;1.15;;;;;;;;;;5059225;28;20233;-80
2023/04/11 13:52:47;;;;;;;2.97;1.30;;;;;;;;;;5061859;28;20233;-81
2023/04/11 13:55:14;;;;;;;1.58;1.13;;;;;;;;;;5061508;28;20312;-80
2023/04/11 13:57:42;;;;;;;2.47;1.08;;;;;;;;;;5060387;28;20336;-81
2023/04/11 14:00:11;;;;;;;2.88;1.20;;;;;;;;;;5061156;28;20209;-80
2023/04/11 14:02:38;;;;;;;1.33;1.10;;;;;;;;;;5061865;28;20226;-80
2023/04/11 14:05:08;;;;;;;2.05;1.23;;;;;;;;;;5062115;28;20221;-80
2023/04/11 14:07:35;;;;;;;1.63;1.20;;;;;;;;;;5062769;28;20285;-79
2023/04/11 14:10:05;;;;;;;3.15;2.75;;;;;;;;;;5062548;28;20206;-81
2023/04/11 14:12:33;;;;;;;1.88;1.13;;;;;;;;;;5061869;28;20205;-81
2023/04/11 14:15:00;;;;;;;1.27;1.15;;;;;;;;;;5059643;28;20253;-81
2023/04/11 14:17:29;;;;;;;2.15;1.55;;;;;;;;;;5057004;28;20288;-81
2023/04/11 14:19:56;;;;;;;1.30;1.20;;;;;;;;;;5061781;28;20596;-81
2023/04/11 14:22:25;;;;;;;2.00;1.33;;;;;;;;;;5061798;28;20262;-81
2023/04/11 14:24:52;;;;;;;1.70;1.10;;;;;;;;;;5059829;28;20297;-81
2023/04/11 14:27:21;;;;;;;1.05;1.00;;;;;;;;;;5060121;28;20212;-81
2023/04/11 14:29:48;;;;;;;0.95;0.90;;;;;;;;;;5060241;28;20293;-81
2023/04/11 14:32:17;;;;;;;1.92;1.10;;;;;;;;;;5060692;28;20224;-81
2023/04/11 14:34:45;;;;;;;1.30;1.20;;;;;;;;;;5059611;28;20222;-81
2023/04/11 14:37:13;;;;;;;1.17;1.00;;;;;;;;;;5065093;28;20213;-81
2023/04/11 14:39:46;;;;;;;1.38;1.20;;;;;;;;;;5078826;28;20197;-80
2023/04/11 14:42:13;;;;;;;1.48;1.38;;;;;;;;;;5080378;28;20205;-79
2023/04/11 14:44:42;;;;;;;4.75;1.98;;;;;;;;;;5059906;28;20230;-80
2023/04/11 14:47:10;;;;;;;2.13;1.50;;;;;;;;;;5068275;28;20220;-79
2023/04/11 14:49:37;;;;;;;4.60;1.65;;;;;;;;;;5079299;28;20209;-79
2023/04/11 14:52:04;;;;;;;2.53;2.33;;;;;;;;;;5064088;28;20205;-80
2023/04/11 14:54:32;;;;;;;2.33;1.10;;;;;;;;;;5062857;28;20257;-79
2023/04/11 14:57:00;;;;;;;1.58;1.30;;;;;;;;;;5060546;28;20289;-80
2023/04/11 14:59:28;;;;;;;3.33;1.50;;;;;;;;;;5052594;28;20210;-80
2023/04/11 15:01:57;;;;;;;1.73;1.20;;;;;;;;;;5037844;28;20289;-80